Time;durP1;ratioP1;P1;durP2;ratioP2;P2;SDS_P1;SDS_P2;PMS_P1;PMS_P2;Temp;Humidity;BMP_temperature;BMP_pressure;BME280_temperature;BME280_humidity;BME280_pressure;Samples;Min_cycle;Max_cycle;Signal;HPM_P1;HPM_P2
2021/09/18 00:01:28;;;;;;;7.83;4.60;;;;;;;13.28;100.00;101116.06;7395193;19;20495;-57
2021/09/18 00:03:57;;;;;;;10.33;6.03;;;;;;;13.26;100.00;101114.22;7399198;19;20419;-56
2021/09/18 00:06:27;;;;;;;8.50;4.23;;;;;;;13.27;100.00;101119.47;7393649;19;20889;-59
2021/09/18 00:08:56;;;;;;;5.90;3.00;;;;;;;13.19;100.00;101107.97;7401959;19;20394;-52
2021/09/18 00:11:28;;;;;;;10.40;4.67;;;;;;;13.33;100.00;101111.94;7395663;19;20411;-54
2021/09/18 00:13:58;;;;;;;12.33;7.60;;;;;;;13.29;100.00;101115.25;7399308;19;20493;-55
2021/09/18 00:16:28;;;;;;;11.50;7.50;;;;;;;13.23;100.00;101115.91;7393100;19;20448;-54
2021/09/18 00:18:57;;;;;;;4.70;3.43;;;;;;;13.20;100.00;101117.50;7401681;19;20403;-51
2021/09/18 00:21:27;;;;;;;11.33;5.00;;;;;;;13.28;100.00;101122.97;7392176;19;20494;-58
2021/09/18 00:23:56;;;;;;;9.67;4.90;;;;;;;13.42;100.00;101120.84;7399355;19;20432;-55
2021/09/18 00:26:32;;;;;;;9.77;5.30;;;;;;;13.42;100.00;101115.66;7394002;19;20411;-55
2021/09/18 00:29:01;;;;;;;5.40;3.43;;;;;;;13.55;100.00;101119.63;7401260;19;20425;-53
2021/09/18 00:31:31;;;;;;;7.40;3.77;;;;;;;13.40;100.00;101119.91;7393952;19;20423;-52
2021/09/18 00:34:00;;;;;;;9.70;5.57;;;;;;;13.42;100.00;101121.75;7399335;19;20440;-56
2021/09/18 00:36:30;;;;;;;8.20;3.80;;;;;;;13.21;100.00;101116.66;7390084;19;20485;-56
2021/09/18 00:39:00;;;;;;;8.33;4.70;;;;;;;13.31;100.00;101123.06;7400136;19;20670;-55
2021/09/18 00:41:32;;;;;;;5.30;3.13;;;;;;;13.28;100.00;101123.84;7394467;19;20408;-59
2021/09/18 00:44:01;;;;;;;10.10;5.20;;;;;;;13.43;100.00;101126.09;7399081;19;20412;-51
2021/09/18 00:46:31;;;;;;;6.73;4.10;;;;;;;13.55;100.00;101128.28;7392440;19;20427;-53
2021/09/18 00:49:01;;;;;;;10.10;4.90;;;;;;;13.60;100.00;101131.91;7400452;19;20388;-59
2021/09/18 00:51:30;;;;;;;10.70;7.47;;;;;;;13.62;100.00;101127.69;7393464;19;20482;-57
2021/09/18 00:54:00;;;;;;;8.43;4.00;;;;;;;13.44;100.00;101129.59;7398795;19;20717;-58
2021/09/18 00:56:32;;;;;;;10.00;6.10;;;;;;;13.40;100.00;101132.88;7391691;19;20429;-56
2021/09/18 00:59:02;;;;;;;5.23;4.00;;;;;;;13.49;100.00;101128.06;7400294;19;20408;-53
2021/09/18 01:01:31;;;;;;;5.07;4.03;;;;;;;13.40;100.00;101132.88;7393153;19;20501;-56
2021/09/18 01:04:01;;;;;;;7.50;4.80;;;;;;;13.55;100.00;101137.78;7398416;19;20439;-55
2021/09/18 01:06:34;;;;;;;4.47;3.60;;;;;;;13.61;100.00;101133.69;7391817;19;20496;-56
2021/09/18 01:09:03;;;;;;;12.63;6.03;;;;;;;13.63;100.00;101131.13;7399991;19;20598;-59
2021/09/18 01:11:35;;;;;;;5.70;4.20;;;;;;;13.52;100.00;101128.16;7396853;19;20451;-59
2021/09/18 01:14:07;;;;;;;10.70;5.80;;;;;;;13.59;100.00;101139.66;7397519;19;20415;-52
2021/09/18 01:16:37;;;;;;;7.03;4.30;;;;;;;13.72;100.00;101140.94;7389433;19;20906;-56
2021/09/18 01:19:07;;;;;;;12.00;5.23;;;;;;;13.62;100.00;101137.16;7399805;19;20405;-54
2021/09/18 01:21:36;;;;;;;8.40;4.27;;;;;;;13.60;100.00;101136.22;7392025;19;20503;-50
2021/09/18 01:24:08;;;;;;;8.93;5.00;;;;;;;13.62;100.00;101135.47;7395138;19;20486;-59
2021/09/18 01:26:40;;;;;;;8.17;5.20;;;;;;;13.70;100.00;101137.44;7371150;19;20499;-55
2021/09/18 01:29:10;;;;;;;8.13;4.73;;;;;;;13.61;100.00;101143.16;7399400;19;20383;-56
2021/09/18 01:31:41;;;;;;;8.80;5.13;;;;;;;13.44;100.00;101142.53;7385737;19;20742;-55
2021/09/18 01:34:11;;;;;;;9.33;5.87;;;;;;;13.56;100.00;101145.59;7397333;19;20482;-55
2021/09/18 01:36:40;;;;;;;8.47;5.60;;;;;;;13.66;100.00;101145.91;7391105;19;20419;-57
2021/09/18 01:39:16;;;;;;;6.80;5.00;;;;;;;13.79;100.00;101137.75;7396056;19;20428;-54
2021/09/18 01:41:47;;;;;;;10.40;5.10;;;;;;;13.71;100.00;101154.75;7394333;19;20693;-59
2021/09/18 01:44:18;;;;;;;8.23;4.97;;;;;;;13.60;100.00;101144.88;7398762;19;20402;-57
2021/09/18 01:46:48;;;;;;;7.93;5.13;;;;;;;13.65;100.00;101145.06;7391467;19;20886;-59
2021/09/18 01:49:19;;;;;;;9.73;5.63;;;;;;;13.51;100.00;101154.94;7398846;19;20392;-55
2021/09/18 01:51:56;;;;;;;9.60;5.50;;;;;;;13.50;100.00;101146.25;7390892;19;20432;-52
2021/09/18 01:54:29;;;;;;;8.27;5.90;;;;;;;13.55;100.00;101146.44;7398600;19;20881;-52
2021/09/18 01:56:58;;;;;;;10.70;5.40;;;;;;;13.68;100.00;101146.88;7390852;19;20414;-59
2021/09/18 01:59:28;;;;;;;7.90;5.23;;;;;;;13.52;100.00;101151.50;7398561;19;20372;-53
2021/09/18 02:01:57;;;;;;;7.93;5.60;;;;;;;13.63;100.00;101146.69;7391130;19;20475;-57
2021/09/18 02:04:27;;;;;;;11.23;5.50;;;;;;;13.68;100.00;101155.53;7398195;19;20460;-57
2021/09/18 02:06:57;;;;;;;7.47;5.37;;;;;;;13.74;100.00;101144.50;7390714;19;20475;-54
2021/09/18 02:09:29;;;;;;;11.10;5.77;;;;;;;13.79;100.00;101142.91;7398008;19;20384;-55
2021/09/18 02:11:58;;;;;;;11.10;7.50;;;;;;;13.88;100.00;101148.44;7390203;19;20768;-55
2021/09/18 02:14:28;;;;;;;12.70;6.90;;;;;;;13.82;100.00;101143.03;7397784;19;20870;-55
2021/09/18 02:16:57;;;;;;;9.03;6.03;;;;;;;13.72;100.00;101147.03;7390322;19;20873;-56
2021/09/18 02:19:27;;;;;;;9.00;6.13;;;;;;;13.67;100.00;101150.28;7396198;19;20388;-57
2021/09/18 02:21:56;;;;;;;9.67;6.47;;;;;;;13.58;100.00;101156.91;7390588;19;20424;-55
2021/09/18 02:24:28;;;;;;;9.23;6.30;;;;;;;13.57;100.00;101155.16;7397634;19;20762;-57
2021/09/18 02:26:58;;;;;;;11.50;6.93;;;;;;;13.58;100.00;101154.31;7390135;19;20415;-53
2021/09/18 02:29:27;;;;;;;12.97;8.07;;;;;;;13.60;100.00;101160.44;7397824;19;20399;-54
2021/09/18 02:31:57;;;;;;;10.30;6.53;;;;;;;13.73;100.00;101163.44;7389637;19;20503;-57
2021/09/18 02:34:27;;;;;;;11.37;6.87;;;;;;;13.67;100.00;101158.94;7398072;19;20950;-53
2021/09/18 02:36:56;;;;;;;10.83;7.57;;;;;;;13.75;100.00;101156.63;7396446;19;20937;-55
2021/09/18 02:39:28;;;;;;;12.30;7.60;;;;;;;13.82;100.00;101157.72;7402309;19;20391;-55
2021/09/18 02:41:58;;;;;;;11.13;6.53;;;;;;;13.76;100.00;101158.38;7397780;19;20928;-56
2021/09/18 02:44:27;;;;;;;11.80;7.43;;;;;;;13.71;100.00;101152.16;7404492;19;20396;-56
2021/09/18 02:46:57;;;;;;;12.80;7.40;;;;;;;13.76;100.00;101156.66;7396870;19;20427;-58
2021/09/18 02:49:26;;;;;;;9.10;6.97;;;;;;;13.74;100.00;101152.28;7403565;19;20395;-55
2021/09/18 02:51:56;;;;;;;9.23;7.07;;;;;;;13.92;100.00;101154.63;7397107;19;20416;-54
2021/09/18 02:54:28;;;;;;;14.80;7.20;;;;;;;13.74;100.00;101155.72;7404035;19;20396;-52
2021/09/18 02:56:58;;;;;;;11.10;7.10;;;;;;;13.85;100.00;101152.66;7396556;19;20439;-54
2021/09/18 02:59:27;;;;;;;11.10;7.70;;;;;;;13.92;100.00;101146.84;7402172;19;20385;-56
2021/09/18 03:01:57;;;;;;;17.53;10.40;;;;;;;13.98;100.00;101153.94;7386428;19;20697;-54
2021/09/18 03:04:27;;;;;;;26.00;18.07;;;;;;;13.99;100.00;101151.41;7403764;19;20392;-56
2021/09/18 03:06:56;;;;;;;12.40;8.37;;;;;;;13.81;100.00;101151.66;7398175;19;20487;-52
2021/09/18 03:09:28;;;;;;;26.50;14.80;;;;;;;13.91;100.00;101153.72;7403497;19;20413;-58
2021/09/18 03:11:58;;;;;;;21.93;14.70;;;;;;;14.00;100.00;101154.88;7400833;19;20443;-56
2021/09/18 03:14:27;;;;;;;16.03;10.93;;;;;;;13.93;100.00;101152.91;7403316;19;20460;-57
2021/09/18 03:16:57;;;;;;;18.53;7.30;;;;;;;14.07;100.00;101155.97;7395866;19;20905;-59
2021/09/18 03:19:26;;;;;;;17.93;11.17;;;;;;;14.22;100.00;101147.81;7401776;19;20403;-59
2021/09/18 03:21:56;;;;;;;10.50;8.27;;;;;;;14.15;100.00;101146.75;7396214;19;20502;-54
2021/09/18 03:24:25;;;;;;;15.03;9.10;;;;;;;14.18;100.00;101150.31;7402928;19;20384;-58
2021/09/18 03:26:57;;;;;;;11.23;8.30;;;;;;;14.14;100.00;101151.03;7385358;19;20507;-55
2021/09/18 03:29:27;;;;;;;10.50;6.70;;;;;;;14.12;100.00;101155.31;7403204;19;20447;-56
2021/09/18 03:31:57;;;;;;;9.40;7.17;;;;;;;14.06;100.00;101136.94;7395923;19;20730;-57
2021/09/18 03:34:26;;;;;;;10.70;7.10;;;;;;;13.94;100.00;101141.72;7402746;19;20455;-57
2021/09/18 03:36:56;;;;;;;10.60;6.97;;;;;;;13.91;100.00;101151.13;7394974;19;20431;-54
2021/09/18 03:39:25;;;;;;;20.60;13.13;;;;;;;13.90;100.00;101157.16;7401092;19;20392;-57
2021/09/18 03:41:57;;;;;;;48.70;24.30;;;;;;;14.03;100.00;101157.56;7398946;19;20435;-56
2021/09/18 03:44:27;;;;;;;18.27;9.80;;;;;;;14.09;100.00;101162.97;7401428;19;20451;-56
2021/09/18 03:46:57;;;;;;;44.33;24.27;;;;;;;14.09;100.00;101162.97;7396628;19;20436;-58
2021/09/18 03:49:26;;;;;;;22.60;14.60;;;;;;;14.13;100.00;101164.84;7402541;19;20376;-55
2021/09/18 03:51:56;;;;;;;11.37;7.43;;;;;;;14.07;100.00;101159.44;7397796;19;20423;-57
2021/09/18 03:54:26;;;;;;;10.13;6.20;;;;;;;14.13;100.00;101159.66;7402033;19;20388;-57
2021/09/18 03:56:58;;;;;;;12.23;7.27;;;;;;;14.03;100.00;101170.53;7397715;19;20423;-58
2021/09/18 03:59:27;;;;;;;11.13;7.47;;;;;;;14.01;100.00;101164.44;7401028;19;20420;-52
2021/09/18 04:01:57;;;;;;;16.17;8.40;;;;;;;13.95;100.00;101166.81;7397071;19;20423;-57
2021/09/18 04:04:26;;;;;;;11.73;8.20;;;;;;;14.05;100.00;101171.47;7401478;19;20409;-56
2021/09/18 04:06:56;;;;;;;9.03;6.67;;;;;;;13.93;100.00;101165.88;7385026;19;20471;-57
2021/09/18 04:09:25;;;;;;;14.17;8.27;;;;;;;14.10;100.00;101175.09;7401848;19;20383;-58
2021/09/18 04:11:57;;;;;;;10.50;6.77;;;;;;;14.29;100.00;101168.84;7394401;19;20456;-53
2021/09/18 04:14:27;;;;;;;14.10;8.07;;;;;;;14.31;100.00;101168.88;7401294;19;20709;-55
2021/09/18 04:16:56;;;;;;;10.13;6.60;;;;;;;14.27;100.00;101169.59;7393145;19;20448;-56
2021/09/18 04:19:26;;;;;;;11.60;8.03;;;;;;;14.20;100.00;101170.25;7400583;19;20726;-54
2021/09/18 04:21:55;;;;;;;17.23;7.90;;;;;;;14.10;100.00;101169.91;7393386;19;20436;-54
2021/09/18 04:24:25;;;;;;;11.80;7.17;;;;;;;14.25;100.00;101174.75;7400994;19;20384;-54
2021/09/18 04:26:57;;;;;;;15.17;7.03;;;;;;;14.38;100.00;101175.16;7392939;19;20411;-55
2021/09/18 04:29:27;;;;;;;12.27;8.00;;;;;;;14.38;100.00;101165.66;7401265;19;20683;-57
2021/09/18 04:31:56;;;;;;;9.10;6.90;;;;;;;14.42;100.00;101167.50;7393912;19;20440;-56
2021/09/18 04:34:26;;;;;;;11.67;7.20;;;;;;;14.38;100.00;101169.94;7400676;19;20408;-55
2021/09/18 04:36:56;;;;;;;8.20;5.23;;;;;;;14.39;100.00;101166.53;7392849;19;20423;-55
2021/09/18 04:39:26;;;;;;;20.70;11.90;;;;;;;14.41;100.00;101181.31;7399264;19;20452;-58
2021/09/18 04:41:58;;;;;;;14.53;9.90;;;;;;;14.40;100.00;101179.56;7393261;19;20896;-54
2021/09/18 04:44:28;;;;;;;8.63;5.90;;;;;;;14.43;100.00;101183.97;7400413;19;20857;-55
2021/09/18 04:46:57;;;;;;;10.23;6.83;;;;;;;14.41;100.00;101181.31;7372744;19;20444;-52
2021/09/18 04:49:27;;;;;;;11.43;7.17;;;;;;;14.48;100.00;101182.41;7400460;19;20428;-56
2021/09/18 04:51:56;;;;;;;11.90;6.40;;;;;;;14.40;100.00;101179.56;7393266;19;20411;-52
2021/09/18 04:54:26;;;;;;;13.60;8.63;;;;;;;14.43;100.00;101184.88;7399977;19;20395;-53
2021/09/18 04:56:58;;;;;;;8.07;6.00;;;;;;;14.53;100.00;101185.16;7391413;19;20423;-56
2021/09/18 04:59:27;;;;;;;18.10;6.50;;;;;;;14.51;100.00;101192.03;7399556;19;20376;-52
2021/09/18 05:01:57;;;;;;;8.70;6.30;;;;;;;14.58;100.00;101188.78;7383064;19;20435;-56
2021/09/18 05:04:27;;;;;;;15.57;7.27;;;;;;;14.52;100.00;101194.63;7399688;19;20409;-52
2021/09/18 05:07:01;;;;;;;11.17;6.90;;;;;;;14.39;100.00;101195.06;7392538;19;20411;-57
2021/09/18 05:09:30;;;;;;;9.43;6.73;;;;;;;14.53;100.00;101208.50;7399963;19;20388;-57
2021/09/18 05:12:03;;;;;;;12.53;5.60;;;;;;;14.59;100.00;101206.13;7392657;19;20482;-58
2021/09/18 05:14:32;;;;;;;8.20;5.60;;;;;;;14.62;100.00;101211.44;7398708;19;20384;-57
2021/09/18 05:17:02;;;;;;;9.77;7.77;;;;;;;14.61;100.00;101212.22;7391639;19;20415;-56
2021/09/18 05:19:31;;;;;;;13.70;6.60;;;;;;;14.64;100.00;101212.34;7399138;19;20409;-57
2021/09/18 05:22:00;;;;;;;12.27;6.70;;;;;;;14.83;100.00;101215.56;7392319;19;20803;-58
2021/09/18 05:24:30;;;;;;;21.80;15.60;;;;;;;14.78;100.00;101218.03;7399281;19;20383;-54
2021/09/18 05:27:02;;;;;;;102.83;62.57;;;;;;;14.79;100.00;101218.91;7391522;19;20755;-51
2021/09/18 05:29:32;;;;;;;15.60;10.33;;;;;;;14.70;100.00;101219.44;7399467;19;20388;-54
2021/09/18 05:32:01;;;;;;;9.80;6.70;;;;;;;14.43;100.00;101218.63;7391151;19;20427;-58
2021/09/18 05:34:31;;;;;;;37.67;22.93;;;;;;;14.52;100.00;101225.78;7399066;19;20392;-52
2021/09/18 05:37:00;;;;;;;55.83;33.97;;;;;;;14.58;100.00;101227.72;7391070;19;20503;-56
2021/09/18 05:39:30;;;;;;;17.37;9.50;;;;;;;14.59;100.00;101226.88;7398711;19;20412;-53
2021/09/18 05:41:59;;;;;;;42.63;29.20;;;;;;;14.57;100.00;101220.78;7391843;19;20443;-53
2021/09/18 05:44:31;;;;;;;113.60;74.00;;;;;;;14.80;100.00;101226.75;7398578;19;20420;-58
2021/09/18 05:47:01;;;;;;;32.20;23.07;;;;;;;14.81;100.00;101222.41;7391535;19;20415;-54
2021/09/18 05:49:31;;;;;;;45.47;29.07;;;;;;;14.92;100.00;101227.97;7398671;19;20387;-58
2021/09/18 05:52:00;;;;;;;31.40;20.60;;;;;;;14.96;100.00;101228.09;7390326;19;20491;-58
2021/09/18 05:54:30;;;;;;;22.17;14.80;;;;;;;14.99;100.00;101225.59;7398516;19;20392;-54
2021/09/18 05:56:59;;;;;;;6.70;5.10;;;;;;;14.79;100.00;101218.91;7390782;19;20432;-58
2021/09/18 05:59:31;;;;;;;14.17;8.23;;;;;;;14.55;100.00;101222.41;7398222;19;20408;-56
2021/09/18 06:02:01;;;;;;;6.53;5.13;;;;;;;14.47;100.00;101231.69;7391269;19;20415;-56
2021/09/18 06:04:30;;;;;;;9.93;7.53;;;;;;;14.37;100.00;101231.38;7398299;19;20839;-58
2021/09/18 06:07:00;;;;;;;8.70;6.00;;;;;;;14.35;100.00;101240.81;7386595;19;20447;-54
2021/09/18 06:09:29;;;;;;;14.70;8.30;;;;;;;14.35;100.00;101247.75;7397510;19;20693;-54
2021/09/18 06:11:59;;;;;;;9.87;7.07;;;;;;;14.28;100.00;101247.53;7397069;19;20479;-55
2021/09/18 06:14:31;;;;;;;10.67;6.27;;;;;;;14.26;100.00;101256.09;7402869;19;20423;-55
2021/09/18 06:17:01;;;;;;;10.70;6.60;;;;;;;14.11;100.00;101254.69;7388714;19;20451;-59
2021/09/18 06:19:30;;;;;;;14.83;8.43;;;;;;;14.19;100.00;101257.56;7409436;19;20406;-52
2021/09/18 06:22:00;;;;;;;10.50;6.90;;;;;;;14.16;100.00;101260.06;7389658;19;20431;-53
2021/09/18 06:24:29;;;;;;;9.90;7.33;;;;;;;14.34;100.00;101267.59;7408491;19;20414;-56
2021/09/18 06:26:59;;;;;;;13.23;8.70;;;;;;;14.44;100.00;101264.50;7388669;19;20448;-53
2021/09/18 06:29:29;;;;;;;20.30;8.50;;;;;;;14.53;100.00;101270.81;7403156;19;20391;-56
2021/09/18 06:32:01;;;;;;;17.20;10.13;;;;;;;14.53;100.00;101269.13;7395351;19;20486;-53
2021/09/18 06:34:30;;;;;;;10.40;6.93;;;;;;;14.56;100.00;101269.22;7408409;19;20408;-54
2021/09/18 06:37:00;;;;;;;26.20;14.80;;;;;;;14.63;100.00;101265.13;7381817;19;20414;-55
2021/09/18 06:39:30;;;;;;;21.97;13.27;;;;;;;14.67;100.00;101266.97;7404489;19;20458;-52
2021/09/18 06:41:59;;;;;;;9.90;6.50;;;;;;;14.76;100.00;101265.56;7396797;19;20728;-54
2021/09/18 06:44:29;;;;;;;8.63;6.47;;;;;;;14.74;100.00;101267.16;7404052;19;20409;-57
2021/09/18 06:47:01;;;;;;;23.90;13.97;;;;;;;14.74;100.00;101261.97;7396471;19;20439;-55
2021/09/18 06:49:30;;;;;;;8.47;6.63;;;;;;;14.61;100.00;101266.75;7403385;19;20384;-54
2021/09/18 06:52:02;;;;;;;6.00;4.30;;;;;;;14.50;100.00;101274.19;7396701;19;20425;-57
2021/09/18 06:54:31;;;;;;;8.03;5.27;;;;;;;14.60;100.00;101275.38;7402389;19;20403;-59
2021/09/18 06:57:01;;;;;;;8.07;4.87;;;;;;;14.65;100.00;101276.44;7396580;19;20515;-56
2021/09/18 06:59:30;;;;;;;16.30;6.17;;;;;;;14.60;100.00;101275.38;7403554;19;20376;-57
2021/09/18 07:02:02;;;;;;;10.60;7.10;;;;;;;14.75;100.00;101279.34;7393614;19;20427;-57
2021/09/18 07:04:32;;;;;;;9.20;5.10;;;;;;;14.82;100.00;101283.94;7403053;19;20408;-55
2021/09/18 07:07:01;;;;;;;15.80;7.23;;;;;;;14.87;100.00;101279.75;7394834;19;20419;-51
2021/09/18 07:09:31;;;;;;;10.77;6.87;;;;;;;14.98;100.00;101281.00;7407636;19;20875;-56
2021/09/18 07:12:06;;;;;;;13.30;8.33;;;;;;;15.16;100.00;101287.59;7398356;19;20454;-52
2021/09/18 07:14:35;;;;;;;30.00;16.77;;;;;;;15.27;100.00;101284.47;7402473;19;20384;-51
2021/09/18 07:17:07;;;;;;;80.40;50.50;;;;;;;15.27;100.00;101274.06;7395544;19;20719;-52
2021/09/18 07:19:37;;;;;;;31.40;20.30;;;;;;;15.30;100.00;101284.53;7407061;19;20444;-52
2021/09/18 07:22:06;;;;;;;17.17;7.37;;;;;;;15.20;100.00;101286.88;7389268;19;20506;-56
2021/09/18 07:24:36;;;;;;;19.97;7.27;;;;;;;15.16;100.00;101292.81;7403507;19;20400;-52
2021/09/18 07:27:06;;;;;;;6.20;3.47;;;;;;;15.17;100.00;101291.97;7392639;19;20416;-58
2021/09/18 07:29:35;;;;;;;22.50;14.77;;;;;;;15.23;100.00;101299.94;7402370;19;20392;-55
2021/09/18 07:32:08;;;;;;;5.03;3.70;;;;;;;15.07;100.00;101303.78;7349141;19;20423;-57
2021/09/18 07:34:38;;;;;;;5.13;1.90;;;;;;;15.15;100.00;101301.44;7402337;19;20406;-58
2021/09/18 07:37:08;;;;;;;12.57;5.90;;;;;;;15.19;100.00;101300.72;7398040;19;20419;-57
2021/09/18 07:39:37;;;;;;;5.13;2.33;;;;;;;15.20;100.00;101298.97;7405792;19;20518;-58
2021/09/18 07:42:07;;;;;;;6.80;3.40;;;;;;;15.18;100.00;101296.31;7373487;19;20523;-58
2021/09/18 07:44:36;;;;;;;8.93;6.23;;;;;;;15.23;100.00;101294.75;7402112;19;20862;-57
2021/09/18 07:47:09;;;;;;;8.30;5.83;;;;;;;15.28;100.00;101296.63;7391942;19;20412;-59
2021/09/18 07:49:38;;;;;;;5.00;3.30;;;;;;;15.31;100.00;101301.91;7402269;19;20424;-57
2021/09/18 07:52:08;;;;;;;7.37;3.20;;;;;;;15.42;100.00;101294.47;7392199;19;20420;-59
2021/09/18 07:54:37;;;;;;;10.23;5.07;;;;;;;15.39;100.00;101305.66;7401345;19;20385;-55
2021/09/18 07:57:27;;;;;;;4.87;3.17;;;;;;;15.36;100.00;101296.03;7400929;19;20419;-58
2021/09/18 07:59:56;;;;;;;7.77;5.37;;;;;;;15.41;100.00;101295.25;7394770;19;20873;-59
2021/09/18 08:02:28;;;;;;;3.00;2.00;;;;;;;15.38;100.00;101296.94;7398480;19;20432;-55
2021/09/18 08:04:58;;;;;;;5.13;2.30;;;;;;;15.46;100.00;101294.59;7395374;19;20394;-56
2021/09/18 08:07:27;;;;;;;9.53;6.50;;;;;;;15.75;100.00;101298.88;7400898;19;20396;-58
2021/09/18 08:09:57;;;;;;;8.40;4.00;;;;;;;15.85;100.00;101297.44;7394475;19;20387;-58
2021/09/18 08:12:27;;;;;;;7.67;4.63;;;;;;;15.93;100.00;101301.16;7400572;19;20721;-57
2021/09/18 08:14:57;;;;;;;4.47;2.83;;;;;;;15.90;100.00;101296.72;7397595;19;20400;-54
2021/09/18 08:17:29;;;;;;;7.13;3.73;;;;;;;15.99;100.00;101290.91;7400576;19;20444;-54
2021/09/18 08:19:59;;;;;;;6.67;2.00;;;;;;;16.03;100.00;101300.59;7393779;19;20754;-58
2021/09/18 08:22:28;;;;;;;4.10;2.40;;;;;;;16.09;100.00;101293.78;7399163;19;20444;-57
2021/09/18 08:24:58;;;;;;;3.77;3.00;;;;;;;16.29;100.00;101291.72;7396172;19;20404;-57
2021/09/18 08:27:27;;;;;;;7.80;4.80;;;;;;;16.31;100.00;101290.91;7400182;19;20721;-56
2021/09/18 08:29:57;;;;;;;4.27;2.30;;;;;;;16.10;100.00;101295.56;7397461;19;20455;-55
2021/09/18 08:32:29;;;;;;;5.87;3.30;;;;;;;16.09;100.00;101296.41;7403265;19;20491;-59
2021/09/18 08:34:59;;;;;;;4.70;3.23;;;;;;;15.84;100.00;101298.28;7392293;19;20405;-54
2021/09/18 08:37:29;;;;;;;10.10;3.70;;;;;;;15.90;100.00;101303.66;7399454;19;20428;-59
2021/09/18 08:39:59;;;;;;;6.90;2.33;;;;;;;15.88;100.00;101310.50;7389915;19;20404;-59
2021/09/18 08:42:28;;;;;;;5.33;2.87;;;;;;;15.88;100.00;101311.41;7398874;19;20436;-56
2021/09/18 08:44:58;;;;;;;4.83;1.97;;;;;;;15.87;100.00;101308.75;7392622;19;20399;-57
2021/09/18 08:47:31;;;;;;;7.03;4.50;;;;;;;16.00;100.00;101310.91;7399507;19;20388;-59
2021/09/18 08:50:03;;;;;;;4.00;1.80;;;;;;;15.98;100.00;101312.59;7392949;19;20404;-56
2021/09/18 08:52:32;;;;;;;6.83;3.70;;;;;;;16.06;100.00;101302.41;7399662;19;20717;-57
2021/09/18 08:55:04;;;;;;;6.37;3.53;;;;;;;16.29;100.00;101315.13;7393581;19;20396;-56
2021/09/18 08:57:33;;;;;;;6.37;3.03;;;;;;;16.32;100.00;101318.72;7398525;19;20697;-56
2021/09/18 09:00:04;;;;;;;10.13;4.70;;;;;;;16.26;100.00;101325.50;7396311;19;20398;-51
2021/09/18 09:02:39;;;;;;;9.10;5.10;;;;;;;16.35;100.00;101328.31;7398230;19;20408;-55
2021/09/18 09:05:12;;;;;;;10.50;4.67;;;;;;;16.11;100.00;101333.75;7391917;19;20423;-55
2021/09/18 09:07:41;;;;;;;5.10;3.30;;;;;;;16.09;100.00;101340.66;7399153;19;20381;-55
2021/09/18 09:10:12;;;;;;;7.73;4.23;;;;;;;16.09;100.00;101345.84;7348824;19;20428;-56
2021/09/18 09:12:42;;;;;;;34.70;22.93;;;;;;;16.21;100.00;101351.41;7398272;19;20869;-55
2021/09/18 09:15:24;;;;;;;11.13;6.00;;;;;;;16.32;100.00;101338.66;7393072;19;20456;-56
2021/09/18 09:17:56;;;;;;;3.53;2.07;;;;;;;16.41;100.00;101341.50;7398557;19;20388;-54
2021/09/18 09:20:27;;;;;;;3.57;2.00;;;;;;;16.31;100.00;101342.97;7394775;19;20919;-57
2021/09/18 09:23:00;;;;;;;3.43;1.70;;;;;;;16.28;100.00;101332.50;7397463;19;20428;-57
2021/09/18 09:25:31;;;;;;;28.67;17.00;;;;;;;16.42;100.00;101327.66;7371725;19;20539;-53
2021/09/18 09:28:02;;;;;;;2.50;1.37;;;;;;;16.40;100.00;101331.94;7397915;19;20456;-51
2021/09/18 09:30:34;;;;;;;1.83;1.23;;;;;;;16.25;100.00;101336.75;7392411;19;20421;-56
2021/09/18 09:33:12;;;;;;;7.43;4.90;;;;;;;16.34;100.00;101334.38;7397754;19;20418;-55
2021/09/18 09:35:44;;;;;;;41.27;16.17;;;;;;;16.29;100.00;101346.38;7392068;19;20950;-58
2021/09/18 09:38:15;;;;;;;11.10;5.50;;;;;;;16.17;100.00;101345.22;7398097;19;20413;-55
2021/09/18 09:40:48;;;;;;;3.73;1.77;;;;;;;16.26;100.00;101344.56;7387586;19;20503;-58
2021/09/18 09:43:20;;;;;;;2.60;1.73;;;;;;;16.35;100.00;101341.34;7397142;19;20428;-55
2021/09/18 09:45:51;;;;;;;6.10;1.90;;;;;;;16.61;100.00;101343.75;7376661;19;20415;-55
2021/09/18 09:48:28;;;;;;;1.60;1.10;;;;;;;16.68;100.00;101345.72;7406277;19;20880;-54
2021/09/18 09:51:01;;;;;;;5.53;2.43;;;;;;;16.70;100.00;101343.13;7373452;19;20474;-54
2021/09/18 09:53:31;;;;;;;2.00;1.23;;;;;;;16.87;100.00;101336.63;7403557;19;20474;-58
2021/09/18 09:56:06;;;;;;;4.70;1.50;;;;;;;16.88;100.00;101335.78;7377124;19;20714;-56
2021/09/18 09:58:53;;;;;;;77.17;24.90;;;;;;;16.86;100.00;101336.56;7405947;19;20415;-56
2021/09/18 10:01:23;;;;;;;7.50;3.50;;;;;;;16.82;100.00;101335.63;7396589;19;21060;-56
2021/09/18 10:03:58;;;;;;;7.10;4.10;;;;;;;16.78;100.00;101338.13;7403140;19;20446;-56
2021/09/18 10:06:28;;;;;;;2.57;1.53;;;;;;;16.58;100.00;101341.09;7374258;19;20426;-60
2021/09/18 10:08:59;;;;;;;4.40;2.97;;;;;;;16.49;100.00;101346.03;7404940;19;20461;-52
2021/09/18 10:11:34;;;;;;;5.43;2.60;;;;;;;16.56;100.00;101356.66;7396882;19;20427;-55
2021/09/18 10:14:04;;;;;;;2.77;1.83;;;;;;;16.55;100.00;101349.69;7401576;19;20439;-57
2021/09/18 10:16:35;;;;;;;3.33;2.27;;;;;;;16.45;100.00;101350.28;7398575;19;20421;-55
2021/09/18 10:19:10;;;;;;;4.40;2.57;;;;;;;16.41;100.00;101354.53;7404899;19;20383;-55
2021/09/18 10:24:22;;;;;;;6.27;4.43;;;;;;;16.35;100.00;101366.53;7406445;19;20451;-54
2021/09/18 10:27:15;;;;;;;5.07;2.60;;;;;;;16.33;100.00;101366.47;7399826;19;20445;-52
2021/09/18 10:29:45;;;;;;;6.27;2.07;;;;;;;16.32;100.00;101372.53;7396419;19;20387;-56
2021/09/18 10:32:15;;;;;;;5.30;2.80;;;;;;;16.15;100.00;101370.31;7403837;19;20491;-55
2021/09/18 10:34:48;;;;;;;5.73;2.33;;;;;;;15.91;100.00;101376.53;7398670;19;20724;-57
2021/09/18 10:37:34;;;;;;;3.73;2.30;;;;;;;15.83;100.00;101379.78;7403379;19;20459;-54
2021/09/18 10:40:06;;;;;;;4.10;2.10;;;;;;;15.99;100.00;101379.41;7395001;19;20391;-57
2021/09/18 10:42:37;;;;;;;3.30;2.80;;;;;;;15.97;100.00;101382.78;7403326;19;20426;-60
2021/09/18 10:45:08;;;;;;;28.07;15.30;;;;;;;16.07;100.00;101384.84;7393533;19;20396;-53
2021/09/18 10:47:43;;;;;;;7.50;3.73;;;;;;;16.10;100.00;101376.25;7403591;19;20444;-57
2021/09/18 10:50:42;;;;;;;13.20;5.43;;;;;;;16.05;100.00;101387.38;7382074;19;20423;-55
2021/09/18 10:53:15;;;;;;;10.10;3.50;;;;;;;16.02;100.00;101386.41;7401169;19;20417;-50
2021/09/18 10:55:58;;;;;;;6.03;3.63;;;;;;;16.03;100.00;101375.16;7395304;19;20437;-54
2021/09/18 10:58:28;;;;;;;5.67;4.27;;;;;;;16.23;100.00;101375.75;7404190;19;20657;-57
2021/09/18 11:00:59;;;;;;;5.00;3.60;;;;;;;16.20;100.00;101386.06;7392708;19;20494;-54
2021/09/18 11:03:46;;;;;;;6.23;3.63;;;;;;;16.17;100.00;101380.78;7401393;19;20432;-58
2021/09/18 11:06:44;;;;;;;9.47;3.20;;;;;;;16.16;100.00;101386.81;7395370;19;20771;-58
2021/09/18 11:09:15;;;;;;;9.70;6.87;;;;;;;16.26;100.00;101386.22;7402131;19;20403;-59
2021/09/18 11:11:45;;;;;;;4.93;1.63;;;;;;;16.32;100.00;101386.41;7395952;19;20436;-56
2021/09/18 11:14:16;;;;;;;4.30;2.90;;;;;;;16.29;100.00;101382.84;7403369;19;20472;-57
2021/09/18 11:16:46;;;;;;;8.13;5.90;;;;;;;16.38;100.00;101382.22;7392506;19;20409;-53
2021/09/18 11:19:18;;;;;;;4.30;2.83;;;;;;;16.33;100.00;101387.28;7407256;19;20850;-57
2021/09/18 11:21:51;;;;;;;3.73;2.40;;;;;;;16.22;100.00;101376.59;7393451;19;20413;-56
2021/09/18 11:24:26;;;;;;;3.10;1.67;;;;;;;16.26;100.00;101382.75;7401923;19;20467;-59
2021/09/18 11:26:56;;;;;;;4.70;2.00;;;;;;;16.26;100.00;101383.63;7394416;19;20429;-60
2021/09/18 11:29:33;;;;;;;5.30;2.07;;;;;;;16.23;100.00;101375.75;7405521;19;20479;-56
2021/09/18 11:32:13;;;;;;;6.00;3.00;;;;;;;16.29;100.00;101381.13;7395039;19;20415;-57